Stoverdale, Pennsylvania
Current Conditions -  °F | °C
As of 2:56 PM on Sunday 21 Dec 2014 (Local Time) from KMDT Reporting Station
Broken Clouds Broken Clouds  
Wind Chill: 29°   Ceiling: 5500
Heat Index: 34°   Visibility: 10mi
Dew Point: 21°   Wind: 6mph
Humidity: 59%   Direction: 30°NNE
Pressure: 30.3"   Gusts: NA
Location:  40.2988°N, 76.709°W
Report Text: KMDT 211956Z 03005KT 10SM SCT029 BKN055 01/M06 A3030 RMK AO2 SLP264 T00111061 $
Loading
Personal Weather Stations






























Interactive Weather Map New forecast layout! Learn more

10-Day Weather Forecast

Advertisements
Track Severe Weather on mobile